Medora, IL (62063)

10:54 PM CDT on August 28, 2015 (GMT -0500)
Rural Macoupin County | | Change Station
CLOSE
Current Station
Personal Weather Station
Location: Carlinville, IL
Elevation: 614 ft
Nearby Weather Stations

Elev 614 ft 39.23 °N, 89.95 °W | Updated 7 minutes ago

Mostly Cloudy
Mostly Cloudy
69.1 °F
Feels Like 69.1 °F
N
3.2
Wind Variable Wind from South

Today
High -- | Low -- °F
--% Chance of Precip.
Yesterday
High -- | Low -- °F
Precip. -- in
6:25 AM 7:37 PM
Waxing Gibbous, 99% visible
Pressure 30.03 in
Visibility 10.0 miles
Clouds Clear
Dew Point 63 °F
Humidity 80%
Rainfall 0.00 in
Snow Depth Not available.
UV 0 out of 12
Pollen 10.40 out of 12
Air Quality Not available.
Flu Activity Not available.
METAR KALN 290335Z AUTO 13005KT 10SM CLR 20/17 A3003 RMK AO2 T02040166
Pressure 30.03 in
Visibility 10.0 miles
Clouds Clear
Dew Point 63 °F
Humidity 80%
Rainfall 0.00 in
Snow Depth Not available.
UV 0 out of 12
Pollen 10.40 out of 12
Air Quality Not available.
Flu Activity Not available.
METAR KALN 290335Z AUTO 13005KT 10SM CLR 20/17 A3003 RMK AO2 T02040166

10-Day Weather Forecast

×

Almanac

Astronomy

Aug. 28, 2015 Rise Set
Actual Time
Civil Twilight
Nautical Twilight
Astronomical Twilight
Moon
Length of Visible Light
Length of Day
Tomorrow will be .
, % of the Moon is Illuminated

Today's Extremes

State Highs State Lows

Community

WunderPhotos

Upload Photos

1,850,609 photos uploaded!

WunderBlogs® & News

Nearby

Air Quality

  Air Quality AQ Index Pollutant
Not available.

Snow Depth

Station Depth Elevation

Earthquake Activity

City Distance Mag. Time & Date
Minimum magnitude displayed is 2.5.

Coastal Water Temperatures

Place Temperature

Stations

Nearby Weather Stations

Station Location Temp. Windchill Dew Point Humidity Wind Precip. Elev Updated Type